createdAt,value
2018-12-08T00:01:44.658Z,98103.92
2018-12-08T00:07:48.003Z,98125.23
2018-12-08T00:13:51.327Z,98121.45
2018-12-08T00:19:54.641Z,98138.95
2018-12-08T00:25:58.145Z,98156.30
2018-12-08T00:32:01.488Z,98147.03
2018-12-08T00:38:04.829Z,98160.06
2018-12-08T00:44:08.160Z,98159.14
2018-12-08T00:50:11.483Z,98183.00
2018-12-08T00:56:14.815Z,98185.19
2018-12-08T01:02:18.134Z,98192.84
2018-12-08T01:08:21.476Z,98198.86
2018-12-08T01:14:24.799Z,98205.79
2018-12-08T01:20:28.137Z,98213.12
2018-12-08T01:26:31.468Z,98210.97
2018-12-08T01:32:35.362Z,98211.19
2018-12-08T01:38:38.712Z,98210.67
2018-12-08T01:44:42.023Z,98210.12
2018-12-08T01:50:45.314Z,98204.22
2018-12-08T01:56:48.650Z,98223.10
2018-12-08T02:02:51.962Z,98210.50
2018-12-08T02:08:55.262Z,98210.80
2018-12-08T02:14:58.559Z,98212.66
2018-12-08T02:21:01.863Z,98203.84
2018-12-08T02:27:05.235Z,98196.26
2018-12-08T02:33:08.547Z,98198.31
2018-12-08T02:39:11.860Z,98193.50
2018-12-08T02:45:15.153Z,98186.94
2018-12-08T02:51:18.464Z,98186.20
2018-12-08T02:57:21.774Z,98197.06
2018-12-08T03:03:25.078Z,98192.44
2018-12-08T03:09:28.388Z,98198.16
2018-12-08T03:15:31.688Z,98196.95
2018-12-08T03:21:35.010Z,98198.28
2018-12-08T03:27:38.402Z,98209.36
2018-12-08T03:33:41.714Z,98214.69
2018-12-08T03:39:45.023Z,98209.84
2018-12-08T03:45:48.315Z,98200.73
2018-12-08T03:51:51.804Z,98203.45
2018-12-08T03:57:55.121Z,98204.27
2018-12-08T04:03:58.514Z,98200.88
2018-12-08T04:10:01.816Z,98186.45
2018-12-08T04:16:05.188Z,98186.87
2018-12-08T04:22:08.489Z,98194.69
2018-12-08T04:28:11.789Z,98195.73
2018-12-08T04:34:15.085Z,98187.60
2018-12-08T04:40:18.383Z,98199.77
2018-12-08T04:46:21.688Z,98200.49
2018-12-08T04:52:25.005Z,98203.16
2018-12-08T04:58:28.309Z,98198.73
2018-12-08T05:04:31.699Z,98203.94
2018-12-08T05:10:35.001Z,98186.84
2018-12-08T05:16:38.332Z,98179.28
2018-12-08T05:22:41.655Z,98175.45
2018-12-08T05:28:44.954Z,98165.80
2018-12-08T05:34:48.259Z,98163.05
2018-12-08T05:40:51.555Z,98150.05
2018-12-08T05:46:54.883Z,98158.37
2018-12-08T05:52:58.195Z,98156.52
2018-12-08T05:59:01.499Z,98161.67
2018-12-08T06:05:06.117Z,98154.55
2018-12-08T06:11:09.415Z,98158.72
2018-12-08T06:17:12.717Z,98148.06
2018-12-08T06:23:16.026Z,98147.77
2018-12-08T06:29:19.310Z,98141.15
2018-12-08T06:35:22.610Z,98146.48
2018-12-08T06:41:25.930Z,98140.03
2018-12-08T06:47:29.227Z,98151.31
2018-12-08T06:53:32.553Z,98144.88
2018-12-08T06:59:35.862Z,98148.23
2018-12-08T07:05:39.190Z,98153.28
2018-12-08T07:11:42.579Z,98138.84
2018-12-08T07:17:45.886Z,98138.02
2018-12-08T07:23:49.186Z,98144.05
2018-12-08T07:29:52.490Z,98141.17
2018-12-08T07:35:55.799Z,98127.56
2018-12-08T07:41:59.116Z,98121.00
2018-12-08T07:48:02.436Z,98132.47
2018-12-08T07:54:05.742Z,98119.34
2018-12-08T08:00:10.180Z,98123.16
2018-12-08T08:06:13.478Z,98102.97
2018-12-08T08:12:16.781Z,98100.63
2018-12-08T08:18:20.125Z,98108.52
2018-12-08T08:24:23.445Z,98074.28
2018-12-08T08:30:26.754Z,98080.95
2018-12-08T08:36:30.083Z,98072.23
2018-12-08T08:42:33.393Z,98079.40
2018-12-08T08:48:36.698Z,98066.97
2018-12-08T08:54:39.999Z,98074.28
2018-12-08T09:00:43.316Z,98063.63
2018-12-08T09:06:46.614Z,98067.16
2018-12-08T09:12:49.926Z,98062.34
2018-12-08T09:18:53.249Z,98057.53
2018-12-08T09:24:56.554Z,98032.95
2018-12-08T09:30:59.864Z,98033.52
2018-12-08T09:37:03.176Z,98025.47
2018-12-08T09:43:06.499Z,98029.75
2018-12-08T09:49:09.798Z,98027.77
2018-12-08T09:55:13.177Z,98021.88
2018-12-08T10:01:18.351Z,98015.25
2018-12-08T10:07:21.663Z,98016.16
2018-12-08T10:13:24.987Z,97996.20
2018-12-08T10:19:28.305Z,97992.28
2018-12-08T10:25:31.615Z,97981.80
2018-12-08T10:31:34.923Z,97956.04
2018-12-08T10:37:39.251Z,97965.80
2018-12-08T10:43:42.552Z,97946.77
2018-12-08T10:49:45.857Z,97936.64
2018-12-08T10:55:49.170Z,97936.34
2018-12-08T11:01:57.965Z,97930.73
2018-12-08T11:08:01.280Z,97930.72
2018-12-08T11:14:04.826Z,97925.28
2018-12-08T11:20:08.487Z,97914.20
2018-12-08T11:26:11.798Z,97902.31
2018-12-08T11:32:15.103Z,97909.62
2018-12-08T11:38:18.422Z,97904.28
2018-12-08T11:44:21.986Z,97891.32
2018-12-08T11:50:25.280Z,97907.02
2018-12-08T11:56:28.596Z,97899.18
2018-12-08T12:02:31.899Z,97904.95
2018-12-08T12:08:35.213Z,97904.87
2018-12-08T12:14:44.745Z,97909.94
2018-12-08T12:20:48.051Z,97908.30
2018-12-08T12:26:51.356Z,97904.19
2018-12-08T12:32:54.660Z,97900.83
2018-12-08T12:38:57.984Z,97900.52
2018-12-08T12:45:01.290Z,97906.55
2018-12-08T12:51:04.676Z,97906.94
2018-12-08T12:57:07.992Z,97881.67
2018-12-08T13:03:11.303Z,97915.12
2018-12-08T13:09:14.609Z,97929.22
2018-12-08T13:15:17.917Z,97925.11
2018-12-08T13:21:21.236Z,97925.33
2018-12-08T13:27:24.560Z,97943.77
2018-12-08T13:33:27.872Z,97944.17
2018-12-08T13:39:31.189Z,97935.50
2018-12-08T13:45:34.527Z,97935.98
2018-12-08T13:51:38.160Z,97917.45
2018-12-08T13:57:41.477Z,97901.91
2018-12-08T14:03:45.058Z,97894.43
2018-12-08T14:09:48.574Z,97902.45
2018-12-08T14:15:51.902Z,97901.22
2018-12-08T14:21:55.742Z,97908.99
2018-12-08T14:27:59.061Z,97909.98
2018-12-08T14:34:02.359Z,97905.91
2018-12-08T14:40:07.310Z,97917.63
2018-12-08T14:46:10.615Z,97916.06
2018-12-08T14:52:15.212Z,97898.20
2018-12-08T14:58:18.793Z,97898.25
2018-12-08T15:04:22.102Z,97897.33
2018-12-08T15:10:25.418Z,97904.91
2018-12-08T15:16:28.738Z,97902.99
2018-12-08T15:22:32.066Z,97905.19
2018-12-08T15:28:35.382Z,97917.83
2018-12-08T15:34:38.690Z,97914.44
2018-12-08T15:40:42.067Z,97918.38
2018-12-08T15:46:45.441Z,97906.47
2018-12-08T15:52:48.813Z,97911.50
2018-12-08T15:58:52.126Z,97915.00
2018-12-08T16:04:55.425Z,97907.36
2018-12-08T16:10:58.753Z,97915.36
2018-12-08T16:17:02.062Z,97920.14
2018-12-08T16:23:05.364Z,97919.77
2018-12-08T16:29:08.665Z,97920.06
2018-12-08T16:35:12.112Z,97923.45
2018-12-08T16:41:15.441Z,97915.80
2018-12-08T16:47:18.739Z,97914.59
2018-12-08T16:53:22.103Z,97919.73
2018-12-08T16:59:25.427Z,97908.38
2018-12-08T17:05:28.738Z,97908.47
2018-12-08T17:11:32.068Z,97903.08
2018-12-08T17:17:35.376Z,97892.97
2018-12-08T17:23:38.762Z,97891.40
2018-12-08T17:29:42.079Z,97888.70
2018-12-08T17:35:45.380Z,97889.26
2018-12-08T17:41:48.696Z,97884.45
2018-12-08T17:47:52.004Z,97880.70
2018-12-08T17:53:55.303Z,97877.12
2018-12-08T17:59:58.588Z,97869.53
2018-12-08T18:06:01.899Z,97844.91
2018-12-08T18:12:05.199Z,97844.13
2018-12-08T18:18:08.497Z,97840.92
2018-12-08T18:24:11.797Z,97826.84
2018-12-08T18:30:15.233Z,97808.28
2018-12-08T18:36:18.541Z,97794.36
2018-12-08T18:42:21.856Z,97776.24
2018-12-08T18:48:25.165Z,97756.61
2018-12-08T18:54:28.513Z,97721.39
2018-12-08T19:00:31.890Z,97717.14
2018-12-08T19:06:35.199Z,97696.33
2018-12-08T19:12:38.514Z,97699.77
2018-12-08T19:18:41.841Z,97696.47
2018-12-08T19:24:45.203Z,97676.55
2018-12-08T19:30:48.602Z,97663.73
2018-12-08T19:36:51.899Z,97645.97
2018-12-08T19:42:55.216Z,97646.61
2018-12-08T19:48:58.537Z,97642.75
2018-12-08T19:55:01.839Z,97611.92
2018-12-08T20:01:05.143Z,97593.16
2018-12-08T20:07:08.516Z,97578.42
2018-12-08T20:13:11.823Z,97566.34
2018-12-08T20:19:15.138Z,97552.95
2018-12-08T20:25:18.439Z,97531.45
2018-12-08T20:31:21.736Z,97510.77
2018-12-08T20:37:25.038Z,97489.81
2018-12-08T20:43:29.363Z,97463.81
2018-12-08T20:49:32.673Z,97449.70
2018-12-08T20:55:35.993Z,97435.54
2018-12-08T21:01:39.336Z,97409.66
2018-12-08T21:07:42.632Z,97398.34
2018-12-08T21:13:45.939Z,97382.15
2018-12-08T21:19:49.251Z,97350.73
2018-12-08T21:25:52.680Z,97327.54
2018-12-08T21:31:56.217Z,97312.50
2018-12-08T21:37:59.519Z,97303.62
2018-12-08T21:44:02.817Z,97273.52
2018-12-08T21:50:06.413Z,97259.81
2018-12-08T21:56:10.580Z,97247.03
2018-12-08T22:02:14.020Z,97235.02
2018-12-08T22:08:17.327Z,97199.47
2018-12-08T22:14:20.636Z,97183.45
2018-12-08T22:20:23.965Z,97169.27
2018-12-08T22:26:27.359Z,97169.31
2018-12-08T22:32:30.740Z,97151.87
2018-12-08T22:38:34.053Z,97133.53
2018-12-08T22:44:37.413Z,97119.44
2018-12-08T22:50:40.724Z,97097.24
2018-12-08T22:56:44.043Z,97089.58
2018-12-08T23:02:47.392Z,97073.04
2018-12-08T23:08:50.715Z,97054.72
2018-12-08T23:14:54.010Z,97045.77
2018-12-08T23:20:57.337Z,97054.09
2018-12-08T23:27:00.649Z,97043.91
2018-12-08T23:33:03.954Z,97023.41
2018-12-08T23:39:07.365Z,97013.17
2018-12-08T23:45:10.660Z,97007.30
2018-12-08T23:51:14.068Z,96983.19
2018-12-08T23:57:17.385Z,96970.04
